Time;durP1;ratioP1;P1;durP2;ratioP2;P2;SDS_P1;SDS_P2;PMS_P1;PMS_P2;Temp;Humidity;BMP_temperature;BMP_pressure;BME280_temperature;BME280_humidity;BME280_pressure;Samples;Min_cycle;Max_cycle;Signal;HPM_P1;HPM_P2
2023/06/18 00:01:11;;;;;;;0.00;0.00;;;;;;;16.89;83.39;96398.56;5018905;28;20037;-78
2023/06/18 00:04:43;;;;;;;0.10;0.10;;;;;;;16.87;84.23;96408.84;5021564;28;20336;-78
2023/06/18 00:07:30;;;;;;;0.00;0.00;;;;;;;16.86;81.96;96409.94;5013206;28;20071;-78
2023/06/18 00:10:16;;;;;;;0.00;0.00;;;;;;;16.86;82.10;96415.34;5019813;28;20671;-78
2023/06/18 00:13:02;;;;;;;0.00;0.00;;;;;;;16.88;82.18;96413.13;5021154;28;20040;-78
2023/06/18 00:15:48;;;;;;;0.05;0.05;;;;;;;16.85;82.54;96405.63;5007982;28;20041;-78
2023/06/18 00:18:34;;;;;;;0.00;0.00;;;;;;;16.84;82.40;96406.72;5024755;28;20077;-78
2023/06/18 00:21:20;;;;;;;0.10;0.10;;;;;;;16.80;82.82;96416.47;5024190;28;20064;-78
2023/06/18 00:24:06;;;;;;;0.00;0.00;;;;;;;16.80;82.98;96416.47;5019950;28;20079;-78
2023/06/18 00:26:52;;;;;;;0.10;0.10;;;;;;;16.76;83.32;96403.84;5022058;28;20561;-79
2023/06/18 00:29:40;;;;;;;0.00;0.00;;;;;;;16.73;83.36;96413.34;4999111;28;20681;-78
2023/06/18 00:32:26;;;;;;;0.00;0.00;;;;;;;16.64;83.78;96413.13;4997195;28;20045;-78
2023/06/18 00:35:40;;;;;;;0.10;0.00;;;;;;;16.64;85.69;96415.03;5021916;28;20065;-78
2023/06/18 00:38:27;;;;;;;0.00;0.00;;;;;;;16.60;84.47;96408.59;5023275;28;20527;-78
2023/06/18 00:41:13;;;;;;;0.03;0.03;;;;;;;16.60;84.41;96408.59;5022236;28;20048;-78
2023/06/18 00:43:58;;;;;;;0.00;0.00;;;;;;;16.55;85.01;96408.66;5020834;28;20217;-78
2023/06/18 00:46:46;;;;;;;0.00;0.00;;;;;;;16.45;88.44;96404.19;5023014;28;20041;-78
2023/06/18 00:49:33;;;;;;;0.10;0.10;;;;;;;16.29;86.68;96400.84;5016232;28;20041;-78
2023/06/18 00:52:23;;;;;;;0.00;0.00;;;;;;;16.20;87.04;96399.06;5021065;28;20034;-78
2023/06/18 00:55:13;;;;;;;0.00;0.00;;;;;;;16.02;88.88;96400.56;5021128;28;20034;-78
2023/06/18 00:58:00;;;;;;;0.17;0.10;;;;;;;16.00;88.64;96390.03;5021887;28;20037;-78
2023/06/18 01:00:47;;;;;;;0.00;0.00;;;;;;;15.87;87.93;96393.41;5021935;28;20047;-79
2023/06/18 01:03:33;;;;;;;0.10;0.10;;;;;;;15.85;89.87;96390.97;5025021;28;20044;-78
2023/06/18 01:06:20;;;;;;;0.00;0.00;;;;;;;15.89;88.99;96388.53;5006125;28;20041;-78
2023/06/18 01:09:07;;;;;;;0.00;0.00;;;;;;;15.93;89.10;96391.47;5023037;28;20128;-78
2023/06/18 01:11:53;;;;;;;0.10;0.10;;;;;;;15.81;91.27;96387.25;5007319;28;20041;-79
2023/06/18 01:14:50;;;;;;;0.00;0.00;;;;;;;15.76;91.62;96392.69;5022661;28;20040;-78
2023/06/18 01:17:37;;;;;;;0.00;0.00;;;;;;;15.75;91.35;96384.88;5012164;28;20701;-78
2023/06/18 01:20:25;;;;;;;0.00;0.00;;;;;;;15.71;91.81;96387.31;5024404;28;21529;-78
2023/06/18 01:23:27;;;;;;;0.03;0.03;;;;;;;15.66;92.98;96389.28;5025677;28;20041;-78
2023/06/18 01:26:13;;;;;;;0.10;0.10;;;;;;;15.59;93.32;96394.97;5024725;28;20297;-78
2023/06/18 01:29:00;;;;;;;0.10;0.10;;;;;;;15.50;90.85;96389.38;5025509;28;20353;-79
2023/06/18 01:31:46;;;;;;;0.10;0.10;;;;;;;15.49;91.46;96382.38;5014712;28;20723;-79
2023/06/18 01:34:32;;;;;;;0.03;0.03;;;;;;;15.53;91.37;96377.19;5013969;28;20033;-79
2023/06/18 01:37:26;;;;;;;0.10;0.10;;;;;;;15.41;94.71;96376.75;5012891;28;20044;-79
2023/06/18 01:40:28;;;;;;;0.10;0.10;;;;;;;15.30;93.73;96376.03;5018580;28;20056;-78
2023/06/18 01:43:14;;;;;;;0.10;0.10;;;;;;;15.19;94.50;96371.78;5022820;28;20570;-78
2023/06/18 01:46:13;;;;;;;0.00;0.00;;;;;;;15.07;96.98;96382.09;5024587;28;20038;-79
2023/06/18 01:49:04;;;;;;;0.03;0.03;;;;;;;15.02;96.34;96381.06;5016075;28;20033;-78
2023/06/18 01:51:52;;;;;;;0.10;0.10;;;;;;;15.00;96.21;96369.72;5016079;28;20076;-78
2023/06/18 01:54:39;;;;;;;0.00;0.00;;;;;;;15.03;96.97;96384.56;5004744;28;20036;-79
2023/06/18 01:57:27;;;;;;;0.00;0.00;;;;;;;15.02;96.72;96378.38;5017141;28;20155;-79
2023/06/18 02:00:13;;;;;;;0.20;0.10;;;;;;;15.11;94.22;96373.19;5025221;28;20783;-78
2023/06/18 02:02:59;;;;;;;0.00;0.00;;;;;;;15.09;95.89;96378.03;5022387;28;20064;-79
2023/06/18 02:05:46;;;;;;;0.05;0.05;;;;;;;15.14;93.93;96372.63;5027398;28;20389;-79
2023/06/18 02:08:32;;;;;;;0.00;0.00;;;;;;;15.17;93.98;96366.66;5014199;28;20060;-78
2023/06/18 02:11:18;;;;;;;0.10;0.10;;;;;;;15.17;96.89;96372.06;5029060;28;20041;-79
2023/06/18 02:14:04;;;;;;;0.10;0.10;;;;;;;15.05;97.50;96367.03;5010973;28;20038;-79
2023/06/18 02:16:50;;;;;;;0.10;0.10;;;;;;;15.00;95.44;96364.34;5013247;28;20275;-79
2023/06/18 02:19:36;;;;;;;0.10;0.00;;;;;;;14.93;96.55;96365.72;5002700;28;20098;-78
2023/06/18 02:22:23;;;;;;;0.08;0.08;;;;;;;14.94;96.34;96359.25;5012959;28;20478;-78
2023/06/18 02:25:12;;;;;;;0.10;0.10;;;;;;;14.95;95.56;96366.28;5012520;28;20036;-79
2023/06/18 02:27:59;;;;;;;0.10;0.10;;;;;;;14.95;96.20;96364.41;5021509;28;20037;-79
2023/06/18 02:30:44;;;;;;;0.10;0.10;;;;;;;14.89;98.31;96362.00;5011476;28;20036;-79
2023/06/18 02:33:30;;;;;;;0.10;0.10;;;;;;;14.76;99.93;96366.09;5025476;28;20385;-79
2023/06/18 02:36:17;;;;;;;0.00;0.00;;;;;;;14.87;98.42;96359.59;5023756;28;20044;-79
2023/06/18 02:39:03;;;;;;;0.05;0.03;;;;;;;15.11;97.22;96354.31;5024003;28;20037;-79
2023/06/18 02:41:49;;;;;;;0.00;0.00;;;;;;;15.24;97.28;96347.47;5026123;28;20060;-79
2023/06/18 02:44:35;;;;;;;0.10;0.10;;;;;;;15.18;97.32;96346.75;5026591;28;20577;-79
2023/06/18 02:47:22;;;;;;;0.00;0.00;;;;;;;15.07;97.87;96345.19;5012506;28;20062;-79
2023/06/18 02:50:08;;;;;;;0.00;0.00;;;;;;;15.07;96.89;96342.47;5024407;28;20045;-79
2023/06/18 02:52:55;;;;;;;0.10;0.10;;;;;;;15.04;98.53;96343.84;5009452;28;20116;-79
2023/06/18 02:55:42;;;;;;;0.08;0.08;;;;;;;15.07;98.65;96341.69;5024917;28;20083;-79
2023/06/18 02:58:28;;;;;;;0.00;0.00;;;;;;;15.13;98.79;96340.56;4998474;28;20124;-79
2023/06/18 03:01:19;;;;;;;0.00;0.00;;;;;;;15.13;98.54;96338.69;5010655;28;20364;-79
2023/06/18 03:04:05;;;;;;;0.10;0.10;;;;;;;15.22;96.32;96341.56;5008894;28;20589;-79
2023/06/18 03:06:54;;;;;;;0.10;0.10;;;;;;;15.17;98.07;96342.41;5009018;28;20311;-79
2023/06/18 03:09:40;;;;;;;0.10;0.10;;;;;;;15.17;98.03;96353.19;5014236;28;20049;-79
2023/06/18 03:12:28;;;;;;;0.10;0.10;;;;;;;15.23;97.62;96345.88;5014665;28;20052;-79
2023/06/18 03:15:14;;;;;;;0.00;0.00;;;;;;;15.30;96.22;96352.56;5009689;28;20077;-79
2023/06/18 03:18:00;;;;;;;0.00;0.00;;;;;;;15.29;97.97;96348.25;5023030;28;20756;-79
2023/06/18 03:20:48;;;;;;;0.10;0.10;;;;;;;15.28;98.79;96354.75;5026354;28;20049;-78
2023/06/18 03:23:34;;;;;;;0.10;0.10;;;;;;;15.45;96.06;96353.53;5010308;28;20048;-78
2023/06/18 03:26:24;;;;;;;0.08;0.08;;;;;;;15.55;96.47;96354.25;5023147;28;20033;-78
2023/06/18 03:29:10;;;;;;;0.10;0.10;;;;;;;15.68;96.01;96355.53;5022607;28;20032;-79
2023/06/18 03:31:56;;;;;;;0.10;0.10;;;;;;;15.78;96.93;96358.13;5024107;28;20053;-79
2023/06/18 03:34:43;;;;;;;0.00;0.00;;;;;;;15.80;97.15;96353.28;5011422;28;20762;-79
2023/06/18 03:37:31;;;;;;;0.10;0.10;;;;;;;15.68;98.35;96352.84;5013873;28;20510;-79
2023/06/18 03:40:17;;;;;;;0.10;0.10;;;;;;;15.78;97.09;96350.03;5013581;28;20064;-79
2023/06/18 03:43:03;;;;;;;0.10;0.10;;;;;;;15.92;95.97;96352.09;5008315;28;20129;-79
2023/06/18 03:45:49;;;;;;;0.10;0.10;;;;;;;16.01;96.82;96355.75;5024338;28;20041;-79
2023/06/18 03:48:36;;;;;;;0.10;0.10;;;;;;;16.08;95.51;96351.63;5010086;28;20064;-79
2023/06/18 03:51:23;;;;;;;0.03;0.03;;;;;;;16.08;96.12;96353.53;5008579;28;20937;-79
2023/06/18 03:54:09;;;;;;;0.10;0.10;;;;;;;16.05;95.85;96356.81;5009837;28;20109;-79
2023/06/18 03:56:55;;;;;;;0.10;0.10;;;;;;;15.87;98.51;96364.56;5009395;28;20124;-79
2023/06/18 03:59:42;;;;;;;0.10;0.10;;;;;;;15.85;98.12;96366.69;5012311;28;20040;-79
2023/06/18 04:02:28;;;;;;;0.10;0.10;;;;;;;15.86;97.58;96371.00;5001708;28;20059;-79
2023/06/18 04:05:14;;;;;;;0.10;0.10;;;;;;;15.88;98.00;96371.56;5011761;28;20535;-80
2023/06/18 04:08:00;;;;;;;0.10;0.10;;;;;;;15.96;97.35;96363.94;5023459;28;20117;-79
2023/06/18 04:10:47;;;;;;;0.10;0.10;;;;;;;15.99;99.22;96368.75;5012195;28;20057;-79
2023/06/18 04:13:33;;;;;;;0.00;0.00;;;;;;;16.04;99.12;96366.81;5014251;28;20124;-79
2023/06/18 04:16:19;;;;;;;0.10;0.10;;;;;;;16.15;97.60;96373.69;5022349;28;20134;-79
2023/06/18 04:19:05;;;;;;;0.10;0.10;;;;;;;16.11;99.08;96371.88;5023153;28;20514;-79
2023/06/18 04:21:51;;;;;;;0.00;0.00;;;;;;;16.06;99.99;96374.63;5015767;28;20041;-79
2023/06/18 04:24:37;;;;;;;0.00;0.00;;;;;;;16.08;100.00;96377.81;5012099;28;20051;-79
2023/06/18 04:27:23;;;;;;;0.10;0.10;;;;;;;16.12;100.00;96368.88;5024988;28;20563;-79
2023/06/18 04:30:09;;;;;;;0.05;0.05;;;;;;;16.24;98.92;96373.06;5009639;28;20037;-79
2023/06/18 04:32:57;;;;;;;0.03;0.03;;;;;;;16.39;98.13;96373.72;5014299;28;20041;-79
2023/06/18 04:35:45;;;;;;;0.00;0.00;;;;;;;16.49;97.77;96378.19;5027863;28;20080;-79
2023/06/18 04:38:55;;;;;;;0.10;0.10;;;;;;;16.60;98.93;96365.38;5024390;28;20156;-79
2023/06/18 04:41:42;;;;;;;0.10;0.10;;;;;;;16.70;97.89;96367.97;5010153;28;20029;-79
2023/06/18 04:44:28;;;;;;;0.03;0.03;;;;;;;16.81;97.58;96366.78;5025298;28;20194;-79
2023/06/18 04:47:15;;;;;;;0.00;0.00;;;;;;;16.91;96.18;96366.63;5020708;28;20041;-79
2023/06/18 04:50:03;;;;;;;0.00;0.00;;;;;;;16.97;98.59;96375.47;5015770;28;20065;-79
2023/06/18 04:52:50;;;;;;;0.00;0.00;;;;;;;17.02;97.17;96369.19;5008085;28;20040;-79
2023/06/18 04:55:38;;;;;;;0.10;0.10;;;;;;;17.08;96.17;96366.13;5013616;28;20111;-79
2023/06/18 04:58:24;;;;;;;0.00;0.00;;;;;;;17.16;95.82;96362.75;5030462;28;20044;-79
2023/06/18 05:01:13;;;;;;;0.10;0.10;;;;;;;17.22;95.60;96375.13;5016437;28;20628;-79
2023/06/18 05:04:00;;;;;;;0.10;0.10;;;;;;;17.21;96.68;96372.72;5017905;28;20041;-79
2023/06/18 05:06:46;;;;;;;0.00;0.00;;;;;;;17.26;96.12;96364.50;5030231;28;20738;-78
2023/06/18 05:09:32;;;;;;;0.10;0.10;;;;;;;17.35;96.60;96361.94;5017975;28;20048;-78
2023/06/18 05:12:18;;;;;;;0.10;0.10;;;;;;;17.40;96.73;96365.38;5012096;28;20059;-78
2023/06/18 05:15:07;;;;;;;0.10;0.10;;;;;;;17.51;96.46;96372.25;5014069;28;20030;-78
2023/06/18 05:17:53;;;;;;;0.10;0.10;;;;;;;17.63;95.91;96362.88;5016752;28;20046;-79
2023/06/18 05:20:41;;;;;;;0.10;0.10;;;;;;;17.65;98.73;96372.28;5029002;28;20474;-78
2023/06/18 05:23:27;;;;;;;0.00;0.00;;;;;;;17.69;98.97;96378.72;5019282;28;20564;-78
2023/06/18 05:26:14;;;;;;;0.10;0.10;;;;;;;17.73;98.75;96373.56;5014403;28;20041;-78
2023/06/18 05:29:00;;;;;;;0.10;0.10;;;;;;;17.79;98.12;96381.28;5014315;28;20039;-78
2023/06/18 05:31:47;;;;;;;0.10;0.10;;;;;;;17.88;98.41;96378.72;5015075;28;20071;-79
2023/06/18 05:38:47;;;;;;;0.10;0.10;;;;;;;18.26;95.00;96379.38;5027309;28;20044;-78
2023/06/18 05:41:33;;;;;;;0.10;0.10;;;;;;;18.37;96.84;96382.72;5015345;28;20045;-78
2023/06/18 05:44:19;;;;;;;0.03;0.03;;;;;;;18.48;96.86;96378.72;5014570;28;20116;-78
2023/06/18 05:47:06;;;;;;;0.10;0.10;;;;;;;18.57;96.01;96376.91;5016216;28;20068;-78
2023/06/18 05:49:53;;;;;;;0.00;0.00;;;;;;;18.68;95.75;96374.84;5017800;28;20029;-78
2023/06/18 05:52:38;;;;;;;0.10;0.10;;;;;;;18.80;94.40;96374.31;5015236;28;20383;-78
2023/06/18 05:55:24;;;;;;;0.10;0.10;;;;;;;18.88;93.04;96379.81;5015190;28;20091;-78
2023/06/18 05:58:10;;;;;;;0.10;0.10;;;;;;;18.97;94.04;96369.06;5012327;28;20094;-78
2023/06/18 06:00:56;;;;;;;0.00;0.00;;;;;;;19.05;92.50;96371.06;5019237;28;20439;-79
2023/06/18 06:03:42;;;;;;;0.10;0.10;;;;;;;19.18;92.08;96383.00;5028078;28;20048;-79
2023/06/18 06:06:29;;;;;;;0.10;0.10;;;;;;;19.28;93.76;96381.94;5005561;28;20043;-78
2023/06/18 06:09:15;;;;;;;0.10;0.10;;;;;;;19.36;93.50;96381.22;5015864;28;20072;-78
2023/06/18 06:12:01;;;;;;;0.10;0.10;;;;;;;19.47;93.90;96388.03;5010335;28;20045;-78
2023/06/18 06:14:48;;;;;;;0.08;0.08;;;;;;;19.61;93.66;96388.81;5013844;28;20048;-78
2023/06/18 06:17:33;;;;;;;0.00;0.00;;;;;;;19.74;93.10;96387.94;5025694;28;20045;-78
2023/06/18 06:20:19;;;;;;;0.10;0.10;;;;;;;19.87;92.30;96380.06;5017262;28;20128;-78
2023/06/18 06:23:06;;;;;;;0.00;0.00;;;;;;;19.96;91.70;96378.19;5011356;28;20068;-78
2023/06/18 06:25:52;;;;;;;0.10;0.10;;;;;;;20.06;90.15;96385.28;5013424;28;20047;-78
2023/06/18 06:28:39;;;;;;;0.10;0.10;;;;;;;20.21;89.52;96384.88;5016774;28;20041;-78
2023/06/18 06:31:26;;;;;;;0.10;0.10;;;;;;;20.35;86.02;96384.78;5025792;28;20049;-78
2023/06/18 06:34:12;;;;;;;0.00;0.00;;;;;;;20.31;84.16;96385.44;5012354;28;20033;-77
2023/06/18 06:36:58;;;;;;;0.10;0.10;;;;;;;20.43;86.27;96384.81;5027444;28;20046;-77
2023/06/18 06:43:52;;;;;;;0.10;0.10;;;;;;;20.75;84.87;96382.91;5022686;28;20041;-78
2023/06/18 06:46:54;;;;;;;0.10;0.10;;;;;;;20.84;86.14;96384.50;4998223;28;20033;-78
2023/06/18 06:49:54;;;;;;;0.10;0.10;;;;;;;20.91;85.51;96386.78;5019708;28;20033;-78
2023/06/18 06:52:47;;;;;;;0.00;0.00;;;;;;;20.89;85.31;96391.75;5013957;28;20490;-78
2023/06/18 06:55:34;;;;;;;0.08;0.08;;;;;;;20.94;85.06;96394.31;5015722;28;20037;-78
2023/06/18 06:58:20;;;;;;;0.10;0.10;;;;;;;20.80;83.23;96386.28;5009155;28;20619;-78
2023/06/18 07:01:06;;;;;;;0.03;0.03;;;;;;;20.83;84.96;96399.22;5024976;28;20098;-78
2023/06/18 07:03:52;;;;;;;0.10;0.10;;;;;;;20.97;85.27;96401.03;5025459;28;20044;-78
2023/06/18 07:06:38;;;;;;;0.10;0.10;;;;;;;20.94;85.34;96396.25;5013812;28;20053;-78
2023/06/18 07:09:24;;;;;;;0.10;0.10;;;;;;;21.04;85.43;96394.03;5026930;28;20040;-78
2023/06/18 07:12:11;;;;;;;0.10;0.10;;;;;;;21.10;85.59;96384.59;5023682;28;20041;-77
2023/06/18 07:14:57;;;;;;;0.10;0.10;;;;;;;21.23;83.95;96384.75;5014445;28;20624;-78
2023/06/18 07:17:43;;;;;;;0.00;0.00;;;;;;;21.32;84.12;96380.16;5015193;28;20036;-77
2023/06/18 07:20:29;;;;;;;0.10;0.10;;;;;;;21.45;82.37;96383.84;5021620;28;20095;-77
2023/06/18 07:23:15;;;;;;;0.10;0.10;;;;;;;21.36;80.35;96387.38;5008565;28;20091;-78
2023/06/18 07:26:00;;;;;;;0.10;0.10;;;;;;;21.42;80.67;96380.66;5027582;28;20143;-78
2023/06/18 07:28:46;;;;;;;0.03;0.03;;;;;;;21.45;78.96;96381.13;5027688;28;20099;-78
2023/06/18 07:31:32;;;;;;;0.00;0.00;;;;;;;21.63;80.72;96382.72;5028674;28;20037;-78
2023/06/18 07:34:18;;;;;;;0.08;0.08;;;;;;;21.64;77.66;96389.78;5005315;28;20075;-78
2023/06/18 07:37:04;;;;;;;0.00;0.00;;;;;;;21.77;78.35;96375.19;5021544;28;20569;-78
2023/06/18 07:43:59;;;;;;;0.00;0.00;;;;;;;22.07;78.68;96378.81;5024898;28;20040;-78
2023/06/18 07:46:45;;;;;;;0.10;0.10;;;;;;;22.09;75.48;96381.25;5026284;28;20172;-78
2023/06/18 07:49:31;;;;;;;0.10;0.10;;;;;;;22.18;77.16;96382.06;5016949;28;20103;-78
2023/06/18 07:52:17;;;;;;;0.10;0.10;;;;;;;22.38;76.13;96384.06;5009099;28;20041;-78
2023/06/18 07:55:03;;;;;;;0.00;0.00;;;;;;;22.27;74.56;96384.75;4988081;28;20049;-78
2023/06/18 07:57:49;;;;;;;0.10;0.10;;;;;;;22.56;73.19;96382.06;5018394;28;20118;-78
2023/06/18 08:00:35;;;;;;;0.10;0.10;;;;;;;22.40;67.04;96386.44;5026427;28;20496;-78
2023/06/18 08:03:21;;;;;;;0.10;0.03;;;;;;;22.73;69.49;96389.38;5009466;28;20048;-78
2023/06/18 08:06:07;;;;;;;0.10;0.10;;;;;;;22.71;67.68;96391.63;5025529;28;20051;-78
2023/06/18 08:08:53;;;;;;;0.10;0.10;;;;;;;22.69;65.40;96388.44;5026669;28;20064;-77
2023/06/18 08:11:39;;;;;;;0.08;0.08;;;;;;;22.95;69.13;96386.41;5025672;28;20128;-77
2023/06/18 08:14:27;;;;;;;0.00;0.00;;;;;;;23.20;69.88;96381.94;5026887;28;20049;-78
2023/06/18 08:17:16;;;;;;;0.10;0.10;;;;;;;23.20;63.80;96381.13;5018675;28;20155;-78
2023/06/18 08:20:03;;;;;;;0.10;0.10;;;;;;;23.23;58.19;96385.91;5025809;28;20037;-77
2023/06/18 08:22:51;;;;;;;0.00;0.00;;;;;;;23.37;62.28;96378.28;5025227;28;20612;-77
2023/06/18 08:25:36;;;;;;;0.00;0.00;;;;;;;23.26;59.19;96377.84;5025192;28;20059;-77
2023/06/18 08:28:22;;;;;;;0.00;0.00;;;;;;;23.54;59.54;96366.41;5024084;28;20517;-77
2023/06/18 08:31:08;;;;;;;0.00;0.00;;;;;;;23.68;58.77;96360.72;5021765;28;20076;-77
2023/06/18 08:33:54;;;;;;;0.10;0.10;;;;;;;23.61;57.22;96366.72;5025151;28;20071;-77
2023/06/18 08:36:39;;;;;;;0.03;0.03;;;;;;;23.63;60.15;96367.16;5028475;28;20139;-78
2023/06/18 08:39:26;;;;;;;0.00;0.00;;;;;;;23.39;58.71;96367.03;5028872;28;20088;-78
2023/06/18 08:42:17;;;;;;;0.00;0.00;;;;;;;23.45;52.91;96361.03;5023424;28;20426;-78
2023/06/18 08:45:05;;;;;;;;;;;;;;;23.53;54.31;96359.38;5005910;28;20419;-78
2023/06/18 08:47:58;;;;;;;0.10;0.10;;;;;;;23.63;50.77;96367.16;5018493;28;19992;-78
2023/06/18 08:50:44;;;;;;;0.00;0.00;;;;;;;23.75;53.07;96363.72;5016449;28;20147;-77
2023/06/18 08:53:59;;;;;;;0.00;0.00;;;;;;;23.78;55.91;96368.50;5025651;28;20120;-77
2023/06/18 08:56:56;;;;;;;0.00;0.00;;;;;;;23.79;56.09;96365.41;5024598;28;20098;-78
2023/06/18 08:59:44;;;;;;;0.10;0.10;;;;;;;23.87;52.48;96370.00;5026468;28;20056;-78
2023/06/18 09:02:30;;;;;;;0.10;0.10;;;;;;;23.99;56.32;96372.00;5021018;28;20491;-77
2023/06/18 09:05:17;;;;;;;0.10;0.10;;;;;;;24.21;52.37;96370.00;5025838;28;20515;-77
2023/06/18 09:08:04;;;;;;;0.00;0.00;;;;;;;24.32;52.50;96366.50;5021907;28;20509;-78
2023/06/18 09:10:54;;;;;;;0.10;0.10;;;;;;;24.43;55.21;96366.84;5026487;28;20282;-78
2023/06/18 09:13:43;;;;;;;0.00;0.00;;;;;;;24.71;51.63;96367.81;5011117;28;20048;-77
2023/06/18 09:16:28;;;;;;;0.15;0.10;;;;;;;24.71;50.78;96359.59;5025526;28;20062;-77
2023/06/18 09:19:16;;;;;;;0.00;0.00;;;;;;;25.04;52.87;96358.69;5020834;28;20056;-77
2023/06/18 09:22:16;;;;;;;0.10;0.10;;;;;;;24.88;52.32;96355.84;5023307;28;20106;-77
2023/06/18 09:25:07;;;;;;;0.00;0.00;;;;;;;25.18;49.94;96352.88;5012388;28;20041;-78
2023/06/18 09:27:56;;;;;;;0.10;0.10;;;;;;;24.77;42.18;96351.97;5013653;28;20715;-78
2023/06/18 09:30:50;;;;;;;0.03;0.03;;;;;;;24.98;46.34;96351.81;5023541;28;20449;-78
2023/06/18 09:33:36;;;;;;;0.10;0.10;;;;;;;25.07;49.50;96352.56;5014273;28;20047;-78
2023/06/18 09:36:24;;;;;;;0.10;0.10;;;;;;;25.19;48.09;96348.97;5024022;28;20068;-77
2023/06/18 09:39:14;;;;;;;0.08;0.08;;;;;;;25.02;43.53;96356.28;5023381;28;20052;-77
2023/06/18 09:42:07;;;;;;;0.05;0.05;;;;;;;25.53;43.87;96344.94;5025159;28;20654;-78
2023/06/18 09:44:53;;;;;;;0.10;0.10;;;;;;;25.52;41.79;96351.53;5015519;28;20052;-79
2023/06/18 09:47:42;;;;;;;0.10;0.10;;;;;;;25.95;47.81;96348.06;5029042;28;20079;-78
2023/06/18 09:50:29;;;;;;;0.00;0.00;;;;;;;26.05;35.28;96342.06;5027023;28;20751;-77
2023/06/18 09:53:18;;;;;;;0.10;0.10;;;;;;;25.99;33.92;96345.41;5014099;28;20076;-78
2023/06/18 09:56:14;;;;;;;0.10;0.10;;;;;;;26.45;34.22;96343.13;5013171;28;20124;-78
2023/06/18 09:59:03;;;;;;;0.10;0.10;;;;;;;27.11;33.47;96345.94;5026315;28;20079;-79
2023/06/18 10:01:49;;;;;;;0.05;0.05;;;;;;;26.97;32.26;96353.00;5027961;28;20041;-78
2023/06/18 10:04:36;;;;;;;0.00;0.00;;;;;;;27.64;33.00;96348.25;5028085;28;20044;-78
2023/06/18 10:07:22;;;;;;;0.00;0.00;;;;;;;28.29;30.49;96351.09;5023211;28;20502;-78
2023/06/18 10:10:14;;;;;;;0.00;0.00;;;;;;;28.59;30.14;96343.78;5025132;28;20037;-78
2023/06/18 10:13:06;;;;;;;0.00;0.00;;;;;;;28.30;30.56;96344.44;5025916;28;20434;-78
2023/06/18 10:15:53;;;;;;;0.00;0.00;;;;;;;28.16;31.60;96341.41;5028963;28;20508;-78
2023/06/18 10:18:50;;;;;;;0.00;0.00;;;;;;;27.88;33.33;96334.22;5028145;28;20040;-78
2023/06/18 10:21:44;;;;;;;0.00;0.00;;;;;;;28.27;33.05;96340.44;5027195;28;20045;-78
2023/06/18 10:24:38;;;;;;;0.00;0.00;;;;;;;28.08;29.65;96334.97;5014202;28;20033;-78
2023/06/18 10:27:25;;;;;;;0.00;0.00;;;;;;;27.94;32.29;96332.78;5025796;28;20037;-78
2023/06/18 10:30:11;;;;;;;0.00;0.00;;;;;;;27.92;33.64;96331.53;5008782;28;20108;-78
2023/06/18 10:32:58;;;;;;;0.00;0.00;;;;;;;28.04;32.25;96329.41;5025118;28;20052;-78
2023/06/18 10:35:45;;;;;;;0.00;0.00;;;;;;;28.04;32.34;96329.41;5031311;28;20128;-78
2023/06/18 10:38:33;;;;;;;0.00;0.00;;;;;;;28.23;32.64;96317.56;5026132;28;20068;-78
2023/06/18 10:41:20;;;;;;;0.10;0.10;;;;;;;28.86;31.43;96324.53;5025841;28;20037;-78
2023/06/18 10:44:43;;;;;;;0.00;0.00;;;;;;;29.00;29.79;96327.53;5025729;28;20067;-78
2023/06/18 10:47:31;;;;;;;0.00;0.00;;;;;;;29.35;29.62;96324.50;5025210;28;20781;-78
2023/06/18 10:50:18;;;;;;;0.10;0.10;;;;;;;29.10;31.32;96318.63;5027855;28;20530;-79
2023/06/18 10:53:22;;;;;;;0.00;0.00;;;;;;;28.81;31.84;96316.59;5020296;28;20037;-79
2023/06/18 10:56:08;;;;;;;0.10;0.10;;;;;;;28.47;31.10;96319.19;5027414;28;20048;-78
2023/06/18 10:58:54;;;;;;;0.10;0.10;;;;;;;28.82;31.53;96307.97;5024915;28;20068;-78
2023/06/18 11:01:42;;;;;;;0.10;0.10;;;;;;;29.76;29.83;96304.53;5024488;28;20531;-78
2023/06/18 11:04:33;;;;;;;0.00;0.00;;;;;;;30.01;29.49;96300.09;5024659;28;20504;-79
2023/06/18 11:07:25;;;;;;;0.08;0.08;;;;;;;30.76;28.42;96309.91;5025996;28;20041;-78
2023/06/18 11:10:11;;;;;;;0.10;0.10;;;;;;;30.55;28.85;96300.63;5011030;28;20037;-79
2023/06/18 11:12:57;;;;;;;0.10;0.10;;;;;;;30.65;27.07;96305.41;5023741;28;20037;-78
2023/06/18 11:15:57;;;;;;;0.00;0.00;;;;;;;31.17;28.33;96304.22;5026074;28;20040;-78
2023/06/18 11:18:44;;;;;;;0.10;0.10;;;;;;;31.04;28.22;96289.94;5024104;28;20033;-79
2023/06/18 11:21:31;;;;;;;0.10;0.10;;;;;;;31.66;27.09;96289.09;5025134;28;20040;-79
2023/06/18 11:24:17;;;;;;;0.00;0.00;;;;;;;31.96;26.57;96290.78;5019396;28;20797;-79
2023/06/18 11:27:04;;;;;;;0.10;0.10;;;;;;;31.88;26.62;96289.97;5026457;28;20660;-79
2023/06/18 11:29:55;;;;;;;0.10;0.10;;;;;;;33.01;25.26;96282.19;5024567;28;21004;-79
2023/06/18 11:32:42;;;;;;;0.13;0.13;;;;;;;33.84;23.55;96280.72;5023731;28;20060;-79
2023/06/18 11:35:30;;;;;;;0.10;0.10;;;;;;;35.43;21.63;96275.13;4985618;28;20048;-79
2023/06/18 11:38:20;;;;;;;0.10;0.10;;;;;;;36.83;20.47;96263.56;5024218;28;20111;-79
2023/06/18 11:41:07;;;;;;;;;;;;;;;36.32;20.25;96262.78;5018969;28;20037;-79
2023/06/18 11:43:53;;;;;;;0.10;0.10;;;;;;;37.36;18.83;96268.19;5026837;28;19986;-79
2023/06/18 11:46:39;;;;;;;0.10;0.10;;;;;;;37.23;18.40;96266.44;5026041;28;20040;-79
2023/06/18 11:49:25;;;;;;;0.00;0.00;;;;;;;38.84;17.57;96260.94;5019556;28;20072;-78
2023/06/18 11:52:14;;;;;;;0.10;0.10;;;;;;;40.73;15.41;96263.81;5022862;28;20044;-79
2023/06/18 11:55:04;;;;;;;0.10;0.10;;;;;;;41.73;15.09;96252.72;5027400;28;20173;-79
2023/06/18 11:57:50;;;;;;;0.10;0.10;;;;;;;40.02;15.16;96262.06;5024974;28;20766;-79
2023/06/18 12:00:37;;;;;;;0.10;0.10;;;;;;;41.44;14.45;96250.16;5025839;28;20044;-79
2023/06/18 12:03:23;;;;;;;0.10;0.10;;;;;;;42.78;13.98;96248.94;5021972;28;20068;-79
2023/06/18 12:06:15;;;;;;;0.10;0.10;;;;;;;42.53;13.26;96238.69;5024314;28;20060;-79
2023/06/18 12:09:07;;;;;;;0.10;0.10;;;;;;;41.92;14.14;96242.34;5022954;28;20032;-79
2023/06/18 12:12:14;;;;;;;0.03;0.03;;;;;;;43.33;13.15;96243.34;5024383;28;20116;-79
2023/06/18 12:15:03;;;;;;;0.10;0.10;;;;;;;43.82;12.96;96233.94;5013717;28;20458;-80
2023/06/18 12:18:02;;;;;;;0.10;0.10;;;;;;;44.47;12.59;96252.16;5013471;28;20036;-79
2023/06/18 12:20:49;;;;;;;0.10;0.10;;;;;;;46.31;11.22;96239.34;5025883;28;20037;-79
2023/06/18 12:23:38;;;;;;;0.10;0.10;;;;;;;46.59;10.91;96242.59;5021811;28;20068;-80
2023/06/18 12:26:24;;;;;;;0.10;0.10;;;;;;;45.54;11.86;96243.16;5023012;28;20645;-79
2023/06/18 12:29:11;;;;;;;0.00;0.00;;;;;;;46.08;11.40;96232.56;5020950;28;20146;-79
2023/06/18 12:32:04;;;;;;;0.10;0.10;;;;;;;47.20;10.59;96234.16;5020340;28;20045;-79
2023/06/18 12:34:50;;;;;;;0.10;0.10;;;;;;;47.22;10.83;96239.31;5019883;28;20028;-77
2023/06/18 12:37:44;;;;;;;0.10;0.10;;;;;;;44.56;11.60;96240.09;5023824;28;20950;-79
2023/06/18 12:40:31;;;;;;;0.10;0.10;;;;;;;45.93;10.83;96228.94;5023250;28;20059;-79
2023/06/18 12:43:19;;;;;;;0.10;0.10;;;;;;;47.08;11.15;96219.03;5018740;28;20556;-80
2023/06/18 12:46:04;;;;;;;0.00;0.00;;;;;;;44.08;11.90;96216.63;5021897;28;20052;-80
2023/06/18 12:48:51;;;;;;;0.00;0.00;;;;;;;40.14;15.14;96221.25;5024683;28;20041;-80
2023/06/18 12:51:48;;;;;;;0.00;0.00;;;;;;;38.95;15.66;96222.28;5019062;28;20046;-80
2023/06/18 12:54:37;;;;;;;0.10;0.10;;;;;;;41.47;14.98;96219.13;5019250;28;20462;-79
2023/06/18 12:57:27;;;;;;;0.00;0.00;;;;;;;38.59;17.42;96219.59;5020570;28;20414;-79
2023/06/18 13:00:19;;;;;;;0.00;0.00;;;;;;;37.77;17.17;96215.91;5022405;28;20592;-79
2023/06/18 13:03:05;;;;;;;0.00;0.00;;;;;;;36.53;18.58;96220.69;5019655;28;20297;-79
2023/06/18 13:05:51;;;;;;;0.00;0.00;;;;;;;34.68;19.48;96216.69;5022103;28;20157;-79
2023/06/18 13:08:37;;;;;;;0.00;0.00;;;;;;;35.39;19.54;96215.91;5024573;28;20091;-79
2023/06/18 13:11:23;;;;;;;0.10;0.10;;;;;;;40.84;15.37;96208.16;5022585;28;20041;-79
2023/06/18 13:14:09;;;;;;;0.10;0.10;;;;;;;43.89;11.96;96205.44;5021436;28;20119;-79
2023/06/18 13:17:00;;;;;;;0.10;0.10;;;;;;;48.06;10.93;96203.31;5026914;28;20041;-79
2023/06/18 13:19:46;;;;;;;0.00;0.00;;;;;;;46.06;11.36;96192.66;5027979;28;20644;-79
2023/06/18 13:22:32;;;;;;;0.00;0.00;;;;;;;42.02;13.27;96193.38;5026489;28;20120;-79
2023/06/18 13:25:18;;;;;;;0.00;0.00;;;;;;;38.45;16.54;96204.78;5024741;28;20033;-79